Tiempo atmosférico en la estación meteorológica de A Coruña, A Coruña (58 m.)



Fecha
DESCASC
Temp. máxima en grados centígrados (hora)
DESCASC
Temp. mínima en grados centígrados (hora)
DESCASC
Temp. media en grados centígrados
DESCASC
Racha de viento máxima en m/sg (hora)
DESCASC
Velocidad máxima media en intervalos de 10 minutos(hora)
DESCASC
Precipitaciones diarias en mm
DESCASC
Precipitaciones de 00:00 a 06:00 en mm
DESCASC
Precipitaciones de 06:00 a 12:00 en mm
DESCASC
Precipitaciones de 12:00 a 18:00 en mm
DESCASC
Precipitaciones de 18:00 a 24:00 en mm
DESCASC
20-09-2018 23.7 (18:20) 14.3 (08:50) 19 10.56 (17:10) 6.39 (16:40) 0 0 0 0 0
19-09-2018 23.7 (15:00) 15.1 (08:40) 19.4 8.89 (16:00) 5.28 (19:50) 0 0 0 0 0
18-09-2018 23.6 (15:40) 18.1 (08:50) 20.9 10 (18:20) 6.39 (15:50) 0 0 0 0 0
17-09-2018 26.9 (14:20) 15 (05:40) 20.9 10 (18:50) 6.39 (19:40) 0 0 0 0 0
16-09-2018 21.7 (14:00) 16 (00:00) 18.9 5.83 (16:00) 3.89 (16:30) 0 0 0 0 0
15-09-2018 23.7 (17:30) 16.1 (00:00) 19.9 6.67 (21:20) 4.44 (22:30) 0 0 0 0 0
14-09-2018 18.9 (15:30) 15.8 (00:00) 17.3 11.67 (16:50) 8.06 (15:30) 0 0 0 0 0
13-09-2018 21.2 (13:00) 15.7 (00:00) 18.5 11.11 (19:00) 7.22 (19:00) 0 0 0 0 0
12-09-2018 21.3 (13:10) 16.3 (00:00) 18.8 8.61 (16:50) 5.56 (16:50) 0 0 0 0 0
11-09-2018 24.2 (15:50) 14.1 (00:00) 19.2 5.83 (20:00) 3.61 (21:30) 0 0 0 0 0
10-09-2018 22.9 (15:50) 14.6 (00:00) 18.8 5.56 (19:40) 3.89 (15:50) 0 0 0 0 0
09-09-2018 22.8 (12:50) 15.5 (00:00) 19.1 9.72 (19:00) 6.67 (18:40) 0 0 0 0 0
08-09-2018 26.4 (14:20) 16.2 (00:00) 21.3 5.83 (17:00) 3.33 (19:30) 0 0 0 0 0
07-09-2018 24.8 (16:00) 16.2 (00:00) 20.5 10.83 (19:30) 7.22 (19:40) 0 0 0 0 0
06-09-2018 21.6 (15:20) 16 (00:00) 18.8 12.5 (16:40) 8.06 (16:40) 0.6 0 0.6 0 0
05-09-2018 20.4 (17:10) 15.7 (00:00) 18 11.39 (02:10) 7.22 (02:10) 0 0 0 0 0
04-09-2018 20.3 (12:30) 16.6 (00:00) 18.4 11.67 (22:30) 6.67 (22:30) 0.4 0 0 0.4 0
03-09-2018 26.4 (15:20) 18.9 (00:00) 22.6 12.78 (18:30) 8.06 (18:30) 0.6 0.6 0 0 0
02-09-2018 31.9 (16:30) 19.5 (00:00) 25.7 6.67 (17:20) 3.61 (17:20) 0 0 0 0 0
01-09-2018 28.8 (16:00) 17.8 (00:00) 23.3 7.5 (00:20) 4.44 (00:20) 0 0 0 0 0
31-08-2018 22.1 (13:00) 16.2 (00:00) 19.2 11.67 (15:50) 6.94 (15:50) 0 0 0 0 0
30-08-2018 21.2 (16:10) 15.4 (00:00) 18.3 10 (18:50) 6.67 (18:40) 0 0 0 0 0
29-08-2018 21.4 (16:10) 16.1 (00:00) 18.8 8.61 (00:20) 5.83 (00:10) 0.2 0.2 0 0 0
28-08-2018 27.9 (13:30) 17.3 (00:00) 22.6 11.11 (21:00) 6.94 (14:30) 4 0.8 0 0 3.2
27-08-2018 21.8 (21:00) 18 (00:00) 19.9 10.28 (15:50) 5.56 (16:20) 0 0 0 0 0
26-08-2018 22.4 (13:20) 14.8 (00:00) 18.6 6.39 (13:40) 3.89 (13:30) 0 0 0 0 0
25-08-2018 21.5 (14:40) 14.7 (00:00) 18.1 7.5 (17:50) 4.72 (16:20) 0 0 0 0 0

Gráficas

Temp. máximas Temp. mínimas Temp. medias Precipitaciones Rachas de viento máximas Velocidades máximas media en intervalos de 10 minutos

Datos horarios

Fecha y hora oficial Temperatura (ºC) Velocidad del viento (km/h) Dirección del viento Racha (km/h) Dirección de racha Precipitación (mm) Presión (hPa) Tendencia (hPa) Humedad (%)
2018-09-23 23:00:00 17.8 12 Nordeste 24 Norte 0 1020.4 0.9 96
2018-09-23 22:00:00 17.6 12 Norte 23 Norte 0 1020.2 1.3 99
2018-09-23 21:00:00 18.2 14 Norte 24 Norte 0.2 1019.8 1.1 98
2018-09-23 20:00:00 19.4 6 Norte 15 Norte 0 1019.5 0.8 96
2018-09-23 19:00:00 20.4 6 Norte 15 Norte 0 1018.9 0 93
2018-09-23 18:00:00 21.2 8 Noroeste 15 Noroeste 0 1018.7 -0.1 87
2018-09-23 17:00:00 22 9 Oeste 15 Oeste 0 1018.7 -0.3 83
2018-09-23 16:00:00 22.4 10 Oeste 17 Noroeste 0 1018.9 0.2 81
2018-09-23 15:00:00 22.6 5 Oeste 13 Norte 0 1018.8 0.1 79
2018-09-23 14:00:00 21.8 6 Norte 12 Noroeste 0 1019 0.7 80
2018-09-23 13:00:00 21.6 4 Este 10 Nordeste 0 1018.7 1.2 80
2018-09-23 12:00:00 20.4 4 Nordeste 8 Norte 0 1018.7 1.5 84
2018-09-23 11:00:00 19.8 4 Nordeste 6 Nordeste 0 1018.3 1.6 87
2018-09-23 10:00:00 19.3 3 Este 9 Sudoeste 0 1017.5 0.8 89
2018-09-23 09:00:00 18.9 3 Oeste 9 Oeste 0 1017.2 0.6 90
2018-09-23 08:00:00 18.6 4 Sudeste 7 Sudeste 0 1016.7 0.1 93
2018-09-23 07:00:00 18.5 5 Sudoeste 10 Oeste 0 1016.7 -0.3 94
2018-09-23 06:00:00 18.4 6 Oeste 11 Oeste 0 1016.6 -0.6 96
2018-09-23 05:00:00 18.5 4 Oeste 8 Oeste 0 1016.6 -0.9 95
2018-09-23 04:00:00 18.7 4 Noroeste 8 Oeste 0 1017 -0.7 93
2018-09-23 03:00:00 19.1 4 Norte 8 Norte 0 1017.2 -0.4 91
2018-09-23 02:00:00 19.6 0 Calma 6 Sudeste 0 1017.5 -0.1 87
2018-09-23 01:00:00 19.7 2 Nordeste 8 Sur 0 1017.7 0.6 87
2018-09-23 00:00:00 19.5 4 Sudeste 9 Sudeste 0 1017.6 0.7 87
2018-09-22 23:00:00 19.2 2 Este 5 Sudoeste 0 1017.6 1 88
2018-09-22 22:00:00 19.5 2 Este 13 Sudoeste 0 1017.1 0.6 86
2018-09-22 21:00:00 19.9 5 Oeste 12 Oeste 0 1016.9 0.5 84
2018-09-22 20:00:00 20.5 8 Oeste 15 Oeste 0 1016.6 0.1 81
2018-09-22 19:00:00 20.5 9 Oeste 18 Oeste 0 1016.5 0.1 81
2018-09-22 18:00:00 21.1 14 Oeste 23 Oeste 0 1016.4 -0.1 79
2018-09-22 17:00:00 22 15 Oeste 29 Oeste 0 1016.5 -0.1 77
2018-09-22 16:00:00 22.8 15 Oeste 27 Oeste 0 1016.4 -0.4 74
2018-09-22 15:00:00 23.2 13 Oeste 24 Oeste 0 1016.5 -0.1 73
2018-09-22 14:00:00 22.7 19 Oeste 24 Oeste 0 1016.6 0.3 76
2018-09-22 13:00:00 23.2 10 Oeste 22 Oeste 0 1016.8 1.1 74
2018-09-22 12:00:00 22.2 12 Oeste 22 Oeste 0 1016.6 1.2 80
2018-09-22 11:00:00 21 9 Noroeste 16 Noroeste 0 1016.3 1.4 82
2018-09-22 10:00:00 19 3 Sudeste 11 Sur 0 1015.7 1.1 93
2018-09-22 09:00:00 16.6 3 Sudeste 6 Sur 0 1015.4 1 99
2018-09-22 08:00:00 16.2 0 Calma 3 Sur 0 1014.9 0.5 99
2018-09-22 07:00:00 16.4 0 Calma 3 Sudeste 0 1014.6 0 99
2018-09-22 06:00:00 16.7 2 Este 4 Este 0 1014.4 -0.3 99
2018-09-22 05:00:00 17 3 Este 5 Sur 0 1014.4 -0.5 99
2018-09-22 04:00:00 17.4 3 Sudeste 6 Sudeste 0 1014.6 -0.5 99
2018-09-22 03:00:00 17.7 4 Sudeste 11 Sudeste 0 1014.7 -0.6 99
2018-09-22 02:00:00 17.9 6 Sudeste 10 Sudeste 0 1014.9 -0.3 97
2018-09-22 01:00:00 18.1 6 Sur 10 Sur 0 1015.1 0.1 97
2018-09-22 00:00:00 18.5 8 Sudeste 14 Sur 0 1015.3 0.5 97
2018-09-21 23:00:00 18.6 5 Sudeste 11 Sur 0 1015.2 0.5 95
2018-09-21 22:00:00 18.3 4 Sudeste 6 Sudeste 0 1015 0.5 93
2018-09-21 21:00:00 18.3 2 Nordeste 6 Este 0 1014.8 0.1 92
2018-09-21 20:00:00 18.6 3 Nordeste 6 Este 0 1014.7 -0.2 91
2018-09-21 19:00:00 18.9 0 Calma 6 Nordeste 0 1014.5 -0.4 91
2018-09-21 18:00:00 18.1 3 Noroeste 9 Norte 0.2 1014.7 0 93
2018-09-21 17:00:00 17.4 8 Noroeste 14 Norte 0.6 1014.9 -0.1 93
2018-09-21 16:00:00 18.7 5 Norte 13 Norte 0 1014.9 -0.1 87
2018-09-21 15:00:00 18.7 5 Nordeste 18 Norte 0 1014.7 0.1 87
2018-09-21 14:00:00 17.8 10 Norte 16 Norte 0 1015 0.8 92
2018-09-21 13:00:00 17.4 7 Norte 17 Noroeste 0 1015 1.6 95
2018-09-21 12:00:00 17.1 3 Norte 18 Norte 0 1014.6 1.8 97
2018-09-21 11:00:00 16.9 9 Norte 18 Norte 0.8 1014.2 2.7 98
2018-09-21 10:00:00 17.9 5 Noroeste 13 Oeste 1 1013.4 2.2 95
2018-09-21 09:00:00 18.2 10 Oeste 33 Sudoeste 0.8 1012.8 1.6 94
2018-09-21 08:00:00 20.7 19 Sudoeste 32 Sudoeste 0 1011.5 0.4 75
2018-09-21 07:00:00 20 9 Sur 26 Sudoeste 0 1011.2 -0.1 78
2018-09-21 06:00:00 19.6 8 Sur 29 Sur 0 1011.2 -0.1 78
2018-09-21 05:00:00 19.5 14 Sudoeste 25 Sur 0 1011.1 -0.2 79
2018-09-21 04:00:00 19.4 2 Oeste 20 Sudoeste 0 1011.3 -0.1 79
2018-09-21 03:00:00 19.7 6 Sudoeste 21 Sur 0 1011.3 0 77
2018-09-21 02:00:00 19.8 6 Sur 21 Sudoeste 0 1011.3 -0.3 77
2018-09-21 01:00:00 20 8 Sur 20 Sudoeste 0 1011.4 -0.1 76
2018-09-21 00:00:00 20.1 10 Sudoeste 26 Sudoeste 0 1011.3 0.2 77
2018-09-20 23:00:00 20.3 11 Sur 25 Sur 0 1011.6 0.6 78
2018-09-20 22:00:00 20.6 12 Sur 30 Sur 0 1011.5 0.4 76
2018-09-20 21:00:00 21.2 11 Sur 31 Sudoeste 0 1011.1 0.4 71
2018-09-20 20:00:00 22.1 16 Sudoeste 33 Sudoeste 0 1011 -0.1 67
2018-09-20 19:00:00 23.4 20 Sudoeste 33 Sudoeste 0 1011.1 -0.1 58
2018-09-20 18:00:00 23.1 14 Oeste 38 Oeste 0 1010.7 -0.7 63
2018-09-20 17:00:00 22.1 19 Oeste 36 Oeste 0 1011.1 -1 68
2018-09-20 16:00:00 22.7 17 Oeste 23 Noroeste 0 1011.2 -1.6 66
2018-09-20 15:00:00 23.4 6 Nordeste 12 Este 0 1011.4 -1.8 64
2018-09-20 14:00:00 21.8 9 Noroeste 24 Oeste 0 1012.1 -1 70
2018-09-20 13:00:00 20.6 6 Este 10 Este 0 1012.8 -0.1 71
2018-09-20 12:00:00 18.9 5 Nordeste 10 Norte 0 1013.2 0.5 78
2018-09-20 11:00:00 17.7 4 Nordeste 5 Nordeste 0 1013.1 0.3 83
2018-09-20 10:00:00 16.4 2 Nordeste 5 Nordeste 0 1012.9 0.3 90
2018-09-20 09:00:00 14.5 3 Este 5 Sudeste 0 1012.7 0 98
2018-09-20 08:00:00 14.7 2 Este 4 Sudeste 0 1012.8 -0.2 95
2018-09-20 07:00:00 15 0 Calma 3 Noroeste 0 1012.6 -0.6 94
2018-09-20 06:00:00 15.5 0 Calma 4 Norte 0 1012.7 -1 94
2018-09-20 05:00:00 16 2 Norte 6 Sur 0 1013 -1.3 93
2018-09-20 04:00:00 16.7 4 Sudeste 9 Sudeste 0 1013.2 -1.5 92
2018-09-20 03:00:00 17.1 3 Sur 9 Sudeste 0 1013.7 -1.3 91
2018-09-20 02:00:00 17.5 0 Calma 13 Sur 0 1014.3 -0.8 91
2018-09-20 01:00:00 17.7 10 Sudeste 18 Sudeste 0 1014.7 -0.1 92
2018-09-20 00:00:00 17.1 7 Sudeste 14 Sudeste 0 1015 0.7 95
2018-09-19 23:00:00 16.9 3 Este 7 Este 0 1015.1 0.9 94
2018-09-19 22:00:00 17.7 3 Noroeste 18 Oeste 0 1014.8 0.9 92
2018-09-19 21:00:00 18.5 10 Oeste 27 Oeste 0 1014.3 0.6 87
2018-09-19 20:00:00 19.4 18 Oeste 30 Oeste 0 1014.2 0.5 83
2018-09-19 19:00:00 20.2 17 Oeste 29 Oeste 0 1013.9 -0.3 80
2018-09-19 18:00:00 21 15 Oeste 26 Oeste 0 1013.7 -0.4 78
2018-09-19 17:00:00 21.6 17 Oeste 26 Oeste 0 1013.7 -0.5 75
2018-09-19 16:00:00 22.1 17 Oeste 32 Oeste 0 1014.2 -0.4 73
2018-09-19 15:00:00 23.6 12 Oeste 22 Noroeste 0 1014.1 -0.5 66
2018-09-19 14:00:00 23.1 6 Norte 13 Norte 0 1014.2 0.1 65
2018-09-19 13:00:00 21.6 6 Nordeste 13 Noroeste 0 1014.6 0.8 69
2018-09-19 12:00:00 21.4 6 Nordeste 14 Sur 0 1014.6 1.3 67
2018-09-19 11:00:00 20.7 9 Sudeste 17 Sur 0 1014.1 1.3 69
2018-09-19 10:00:00 18 12 Sur 17 Sur 0 1013.8 1.5 77
2018-09-19 09:00:00 15.3 2 Este 13 Sur 0 1013.3 1.1 86
2018-09-19 08:00:00 15.3 5 Sudeste 15 Sur 0 1012.8 0.5 85
2018-09-19 07:00:00 15.6 8 Sudeste 13 Sudeste 0 1012.3 -0.2 83
2018-09-19 06:00:00 16.1 10 Sur 15 Sur 0 1012.2 -0.5 82
2018-09-19 05:00:00 16.4 10 Sur 13 Sur 0 1012.3 -0.2 81
2018-09-19 04:00:00 16.6 3 Sudeste 11 Sur 0 1012.5 -0.1 81
2018-09-19 03:00:00 17.1 4 Sudeste 9 Sur 0 1012.7 0.4 81
2018-09-19 02:00:00 17.9 6 Sur 9 Sur 0 1012.5 0.1 77
2018-09-19 01:00:00 18 7 Sur 10 Sur 0 1012.6 0.6 76
2018-09-19 00:00:00 18.3 6 Sudeste 19 Sudeste 0 1012.3 0.9 75
2018-09-18 23:00:00 19.1 7 Sur 24 Sudoeste 0 1012.4 1.6 71
2018-09-18 22:00:00 19.2 13 Oeste 31 Oeste 0 1012 1.7 70
2018-09-18 21:00:00 19.3 15 Oeste 31 Oeste 0 1011.4 1.1 68
2018-09-18 20:00:00 20.1 13 Oeste 34 Oeste 0 1010.8 0.6 67
2018-09-18 19:00:00 20.4 15 Oeste 36 Oeste 0 1010.3 0.1 65
2018-09-18 18:00:00 21.3 20 Oeste 32 Noroeste 0 1010.3 -0.2 60
2018-09-18 17:00:00 21.5 16 Oeste 32 Oeste 0 1010.2 -0.4 61
2018-09-18 16:00:00 22.5 21 Oeste 32 Oeste 0 1010.2 -0.4 58
2018-09-18 15:00:00 22.6 15 Oeste 33 Noroeste 0 1010.5 0.2 57
2018-09-18 14:00:00 21.6 19 Oeste 28 Oeste 0 1010.6 0.6 65
2018-09-18 13:00:00 21.4 17 Oeste 27 Oeste 0 1010.6 1.2 70
2018-09-18 12:00:00 20.8 9 Oeste 27 Oeste 0 1010.3 1.5 74
2018-09-18 11:00:00 21.7 14 Sudoeste 23 Sudoeste 0 1010 1.6 66
2018-09-18 10:00:00 20.3 3 Oeste 10 Sur 0 1009.4 1.4 75
2018-09-18 09:00:00 18.2 5 Sudeste 16 Oeste 0 1008.8 0.9 86
2018-09-18 08:00:00 19.1 6 Sudoeste 11 Sudoeste 0 1008.4 0.4 81
2018-09-18 07:00:00 19.4 3 Sudeste 11 Sur 0 1008 -0.1 86
2018-09-18 06:00:00 19.5 6 Sur 12 Sur 0 1007.9 -0.4 84
2018-09-18 05:00:00 19.4 3 Sur 12 Sur 0 1008 -0.2 87
2018-09-18 04:00:00 19.6 4 Sudoeste 17 Sudoeste 0 1008.1 -0.2 85
2018-09-18 03:00:00 19.6 11 Sudoeste 21 Sudoeste 0 1008.3 0.2 85
2018-09-18 02:00:00 19.8 8 Sudoeste 20 Sudoeste 0 1008.2 0.4 84
2018-09-18 01:00:00 20.1 6 Sudoeste 17 Sur 0 1008.3 0.9 83
2018-09-18 00:00:00 20.3 8 Sudoeste 20 Oeste 0 1008.1 1.2 83
2018-09-17 23:00:00 20.4 10 Oeste 22 Oeste 0 1007.8 1 82
2018-09-17 22:00:00 21.3 12 Sudoeste 22 Sudoeste 0 1007.4 0.9 79
2018-09-17 21:00:00 21.2 14 Sudoeste 28 Oeste 0 1006.9 0.4 79
2018-09-17 20:00:00 21.1 17 Oeste 36 Oeste 0 1006.8 0.2 79
2018-09-17 19:00:00 22.3 19 Oeste 36 Oeste 0 1006.5 -0.6 71
2018-09-17 18:00:00 22.8 12 Oeste 23 Oeste 0 1006.5 -0.6 62
2018-09-17 17:00:00 23.7 5 Norte 14 Norte 0 1006.6 -0.3 58
2018-09-17 16:00:00 21.4 6 Oeste 21 Noroeste 0 1007.1 -0.5 69
2018-09-17 15:00:00 21 10 Oeste 34 Sudoeste 0 1007.1 -1.1 71
2018-09-17 14:00:00 24.3 10 Sudoeste 27 Sudoeste 0 1006.9 -1.2 48
2018-09-17 13:00:00 20 4 Este 9 Este 0 1007.6 -0.2 75
2018-09-17 12:00:00 17.7 5 Oeste 15 Oeste 0 1008.2 0.6 84
2018-09-17 11:00:00 18.4 4 Norte 7 Este 0 1008.1 0.8 84
2018-09-17 10:00:00 17.5 3 Este 6 Este 0 1007.8 0.4 89
2018-09-17 09:00:00 16 3 Noroeste 5 Sudeste 0 1007.6 0.2 92
2018-09-17 08:00:00 16.1 3 Sudeste 6 Sudeste 0 1007.3 -0.5 90
2018-09-17 07:00:00 17.4 9 Sur 14 Sur 0 1007.4 -0.9 87
2018-09-17 06:00:00 15 7 Sur 10 Sur 0 1007.4 -1.7 94
2018-09-17 05:00:00 15.5 4 Sudeste 14 Sudeste 0 1007.8 -2.2 93
2018-09-17 04:00:00 15.4 5 Sudeste 12 Sudeste 0 1008.3 -2 94
2018-09-17 03:00:00 15.4 4 Sudeste 7 Sudeste 0 1009.1 -2.1 95
2018-09-17 02:00:00 15.6 3 Nordeste 4 Nordeste 0 1010 -1.9 94
2018-09-17 01:00:00 16.1 2 Este 6 Sudeste 0 1010.3 -1.9 94
2018-09-17 00:00:00 16.2 3 Sur 10 Sudoeste 0 1011.2 -0.9 94
2018-09-16 23:00:00 16.2 6 Sudoeste 11 Oeste 0 1011.9 -0.3 94
2018-09-16 22:00:00 16.5 8 Oeste 12 Oeste 0 1012.2 0 93
2018-09-16 21:00:00 17 7 Noroeste 15 Oeste 0 1012.1 -0.4 91
2018-09-16 20:00:00 17.7 9 Noroeste 18 Oeste 0 1012.2 -0.9 88
2018-09-16 19:00:00 17.8 8 Noroeste 18 Noroeste 0 1012.2 -1.2 88
2018-09-16 18:00:00 19 9 Norte 21 Noroeste 0 1012.5 -1.4 83
2018-09-16 17:00:00 19.2 11 Norte 21 Noroeste 0 1013.1 -1.4 83
2018-09-16 16:00:00 20.2 13 Norte 21 Norte 0 1013.4 -1.3 76
2018-09-16 15:00:00 21 9 Norte 13 Norte 0 1013.9 -0.8 77
2018-09-16 14:00:00 21.4 8 Norte 12 Norte 0 1014.5 0 76
2018-09-16 13:00:00 19.9 4 Nordeste 9 Este 0 1014.7 0.9 83
2018-09-16 12:00:00 19.2 5 Este 13 Este 0 1014.7 0.9 86
2018-09-16 11:00:00 18.2 6 Este 11 Sudeste 0 1014.5 1.1 90
2018-09-16 10:00:00 17.4 8 Sudeste 14 Sudeste 0 1013.8 0.6 93
2018-09-16 09:00:00 16.9 3 Este 10 Sudeste 0 1013.8 0.4 96
2018-09-16 08:00:00 16.9 6 Sudeste 10 Sudeste 0 1013.4 0.2 96
2018-09-16 07:00:00 16.4 2 Este 6 Este 0 1013.2 -0.3 96
2018-09-16 06:00:00 16.4 2 Este 7 Sudeste 0 1013.4 -0.3 96
2018-09-16 05:00:00 16.3 4 Sudeste 6 Sudeste 0 1013.2 -0.6 96
2018-09-16 04:00:00 16.3 2 Nordeste 5 Oeste 0 1013.5 -0.1 96
2018-09-16 03:00:00 16.3 0 Calma 6 Oeste 0 1013.7 0.2 96
2018-09-16 02:00:00 16.2 4 Oeste 5 Noroeste 0 1013.8 0.4 96
2018-09-16 01:00:00 16.1 3 Oeste 14 Oeste 0 1013.6 0.6 96
2018-09-16 00:00:00 16.5 9 Oeste 19 Sudoeste 0 1013.5 1.5 95
2018-09-15 23:00:00 16.7 11 Oeste 24 Sudoeste 0 1013.4 1.8 94
2018-09-15 22:00:00 16.7 10 Sudoeste 24 Oeste 0 1013 1.8 93
2018-09-15 21:00:00 17.2 14 Sudoeste 22 Oeste 0 1012 1.2 89
2018-09-15 20:00:00 19.2 8 Oeste 17 Oeste 0 1011.6 0.8 79
2018-09-15 19:00:00 20.2 10 Oeste 19 Oeste 0 1011.2 0.1 75
2018-09-15 18:00:00 22 11 Oeste 18 Oeste 0 1010.8 -0.8 69
2018-09-15 17:00:00 23 10 Norte 16 Noroeste 0 1010.8 -1.3 66
2018-09-15 16:00:00 23.3 9 Norte 14 Norte 0 1011.1 -1.4 66
2018-09-15 15:00:00 22.4 9 Norte 15 Norte 0 1011.6 -1.1 69
2018-09-15 14:00:00 22.7 10 Norte 13 Norte 0 1012.1 -0.2 66
2018-09-15 13:00:00 22.9 7 Nordeste 11 Nordeste 0 1012.5 0.3 66
2018-09-15 12:00:00 21.8 6 Nordeste 11 Norte 0 1012.7 0.8 70
2018-09-15 11:00:00 19.7 3 Nordeste 6 Nordeste 0 1012.3 0.7 78
2018-09-15 10:00:00 18.4 2 Nordeste 8 Sudeste 0 1012.2 0.7 83
2018-09-15 09:00:00 16.6 5 Sudeste 8 Sudeste 0 1011.9 0.5 91
2018-09-15 08:00:00 16.4 3 Sudeste 6 Sudeste 0 1011.6 0 91
2018-09-15 07:00:00 16.2 0 Calma 4 Norte 0 1011.5 -0.7 93
2018-09-15 06:00:00 16.3 4 Norte 7 Norte 0 1011.4 -1.2 92
2018-09-15 05:00:00 16.5 4 Nordeste 8 Nordeste 0 1011.6 -1.3 91
2018-09-15 04:00:00 16.5 0 Calma 9 Norte 0 1012.2 -0.9 90
2018-09-15 03:00:00 16.7 6 Norte 11 Norte 0 1012.6 -0.8 90
2018-09-15 02:00:00 17.2 6 Noroeste 9 Nordeste 0 1012.9 -0.5 90
2018-09-15 01:00:00 17.1 5 Norte 11 Nordeste 0 1013.1 -0.2 90
2018-09-15 00:00:00 16.9 5 Norte 17 Norte 0 1013.4 0.3 91
2018-09-14 23:00:00 17.8 9 Nordeste 23 Nordeste 0 1013.4 0.6 88
2018-09-14 22:00:00 17.2 12 Nordeste 28 Norte 0 1013.3 0.7 92
2018-09-14 21:00:00 16.4 14 Norte 28 Nordeste 0 1013.1 0.4 94
2018-09-14 20:00:00 17.1 13 Norte 30 Nordeste 0 1012.8 0.1 92
2018-09-14 19:00:00 17.5 18 Norte 36 Norte 0 1012.6 -0.4 90
2018-09-14 18:00:00 17.7 24 Norte 37 Norte 0 1012.7 -0.5 90
2018-09-14 17:00:00 18.2 28 Norte 42 Norte 0 1012.7 -0.8 86
2018-09-14 16:00:00 18.4 27 Norte 42 Norte 0 1013 -0.8 84
2018-09-14 15:00:00 18.5 20 Norte 32 Norte 0 1013.2 -0.7 84
2018-09-14 14:00:00 18.2 16 Norte 35 Norte 0 1013.5 -0.1 86
2018-09-14 13:00:00 17.9 17 Norte 32 Norte 0 1013.8 0.4 88
2018-09-14 12:00:00 17.8 12 Norte 23 Norte 0 1013.9 0.8 89
2018-09-14 11:00:00 17.5 10 Norte 20 Nordeste 0 1013.6 0.8 92
2018-09-14 10:00:00 16.5 7 Norte 19 Norte 0 1013.4 0.8 97
2018-09-14 09:00:00 15.9 11 Norte 18 Norte 0 1013.1 0.4 98
2018-09-14 08:00:00 16 3 Noroeste 11 Nordeste 0 1012.8 -0.4 98
2018-09-14 07:00:00 16 8 Norte 19 Nordeste 0 1012.6 -0.8 98
2018-09-14 06:00:00 16.1 12 Norte 24 Norte 0 1012.7 -0.9 97
2018-09-14 05:00:00 16.2 12 Norte 30 Nordeste 0 1013.2 -0.9 97
2018-09-14 04:00:00 15.9 12 Norte 26 Nordeste 0 1013.4 -0.9 97
2018-09-14 03:00:00 16.2 12 Norte 24 Nordeste 0 1013.6 -0.8 98
2018-09-14 02:00:00 16.1 9 Norte 23 Norte 0 1014.1 -0.4 99
2018-09-14 01:00:00 16.4 12 Norte 22 Norte 0 1014.3 0 97
2018-09-14 00:00:00 16.5 10 Norte 22 Norte 0 1014.4 0.7 95
2018-09-13 23:00:00 17 13 Norte 22 Norte 0 1014.5 1 94
2018-09-13 22:00:00 16.8 14 Norte 24 Nordeste 0 1014.3 0.9 94
2018-09-13 21:00:00 16.9 13 Norte 28 Nordeste 0 1013.7 0.2 94
2018-09-13 20:00:00 17.3 12 Norte 35 Norte 0 1013.5 -0.3 93
2018-09-13 19:00:00 18 26 Norte 40 Norte 0 1013.4 -0.9 91
2018-09-13 18:00:00 18.5 19 Norte 32 Norte 0 1013.5 -1.2 91
2018-09-13 17:00:00 19.4 14 Noroeste 27 Noroeste 0 1013.8 -1.6 85
2018-09-13 16:00:00 19.9 14 Norte 30 Norte 0 1014.3 -1.3 82
2018-09-13 15:00:00 20 20 Norte 32 Norte 0 1014.7 -1.1 82
2018-09-13 14:00:00 20.3 12 Norte 21 Norte 0 1015.4 -0.3 82
2018-09-13 13:00:00 21.2 5 Norte 10 Nordeste 0 1015.6 0.1 75
2018-09-13 12:00:00 19.9 5 Norte 9 Norte 0 1015.8 0.8 80
2018-09-13 11:00:00 18.9 2 Nordeste 5 Este 0 1015.7 0.8 84
2018-09-13 10:00:00 18 4 Nordeste 6 Nordeste 0 1015.5 0.8 89
2018-09-13 09:00:00 16.1 3 Sudeste 4 Sudeste 0 1015 0.4 97
2018-09-13 08:00:00 15.8 0 Calma 3 Noroeste 0 1014.9 -0.1 96
2018-09-13 07:00:00 16.2 0 Calma 9 Este 0 1014.7 -0.6 96
2018-09-13 06:00:00 17 5 Sudeste 13 Sudeste 0 1014.6 -1 96
2018-09-13 05:00:00 16.7 4 Sudeste 5 Sudeste 0 1015 -0.9 97
2018-09-13 04:00:00 16.3 2 Oeste 6 Noroeste 0 1015.3 -0.8 98
2018-09-13 03:00:00 16.3 5 Oeste 14 Norte 0 1015.6 -0.8 97
2018-09-13 02:00:00 16.6 5 Noroeste 10 Noroeste 0 1015.9 -0.4 95
2018-09-13 01:00:00 16.9 3 Noroeste 15 Norte 0 1016.1 0.1 94
2018-09-13 00:00:00 16.7 9 Norte 15 Norte 0 1016.4 0.9 94
2018-09-12 23:00:00 17 4 Noroeste 21 Norte 0 1016.3 1 93
2018-09-12 22:00:00 17.2 12 Norte 27 Norte 0 1016 0.8 93
2018-09-12 21:00:00 17.5 9 Norte 23 Norte 0 1015.5 0.3 93
2018-09-12 20:00:00 18 11 Noroeste 26 Noroeste 0 1015.3 0 90
2018-09-12 19:00:00 18.7 11 Noroeste 27 Noroeste 0 1015.2 -0.2 86
2018-09-12 18:00:00 19 13 Norte 29 Norte 0 1015.2 -0.5 87
2018-09-12 17:00:00 19.6 18 Norte 31 Norte 0 1015.3 -0.5 84
2018-09-12 16:00:00 20.6 11 Noroeste 24 Oeste 0 1015.4 -0.6 82
2018-09-12 15:00:00 20.5 14 Noroeste 26 Oeste 0 1015.7 -0.2 80
2018-09-12 14:00:00 20.8 9 Norte 16 Norte 0 1015.8 0.4 80
2018-09-12 13:00:00 21 7 Norte 11 Norte 0 1016 1 78
2018-09-12 12:00:00 18.6 4 Nordeste 9 Nordeste 0 1015.9 1.3 87
2018-09-12 11:00:00 16.8 2 Nordeste 5 Nordeste 0 1015.4 1.5 95
2018-09-12 10:00:00 16.4 2 Norte 6 Nordeste 0 1015 1.1 97
2018-09-12 09:00:00 16.4 5 Este 9 Nordeste 0 1014.6 0.8 97
2018-09-12 08:00:00 16.8 2 Sudeste 12 Nordeste 0 1013.9 0.2 98
2018-09-12 07:00:00 16.4 2 Noroeste 6 Oeste 0 1013.9 0.7 98
2018-09-12 06:00:00 16.4 4 Oeste 13 Sudoeste 0 1013.8 0.4 98
2018-09-12 05:00:00 16.4 8 Oeste 12 Oeste 0 1013.7 -0.1 96
2018-09-12 04:00:00 16.9 4 Este 10 Sudeste 0 1013.2 -0.9 95
2018-09-12 03:00:00 16.9 5 Sudeste 10 Sudeste 0 1013.4 -0.4 93
2018-09-12 02:00:00 17 7 Sudoeste 15 Sudoeste 0 1013.8 0.2 96
2018-09-12 01:00:00 16.9 6 Oeste 17 Noroeste 0 1014.1 1.1 96
2018-09-12 00:00:00 17 5 Oeste 10 Oeste 0 1013.8 1.4 92
2018-09-11 23:00:00 17.7 4 Sudoeste 13 Sudoeste 0 1013.6 1.3 89
2018-09-11 22:00:00 18 8 Sudoeste 21 Oeste 0 1013 0.8 88
2018-09-11 21:00:00 19.2 8 Oeste 20 Oeste 0 1012.4 -0.2 81
2018-09-11 20:00:00 21.9 11 Oeste 21 Oeste 0 1012.3 -0.6 72
2018-09-11 19:00:00 22 8 Oeste 15 Oeste 0 1012.2 -1.3 72
2018-09-11 18:00:00 22.3 10 Noroeste 15 Oeste 0 1012.6 -1.3 70
2018-09-11 17:00:00 23.2 5 Noroeste 17 Noroeste 0 1012.9 -1.8 68
2018-09-11 16:00:00 23.8 9 Noroeste 13 Norte 0 1013.5 -1.7 65
2018-09-11 15:00:00 22.7 6 Nordeste 12 Noroeste 0 1013.9 -1.6 71
2018-09-11 14:00:00 21.2 6 Oeste 12 Nordeste 0 1014.7 -0.9 70
2018-09-11 13:00:00 19.6 4 Nordeste 8 Nordeste 0 1015.2 -0.1 76
2018-09-11 12:00:00 17.1 4 Nordeste 11 Este 0 1015.5 0.3 86
2018-09-11 11:00:00 16.2 5 Oeste 9 Oeste 0 1015.6 0.4 91
2018-09-11 10:00:00 15.3 3 Nordeste 5 Nordeste 0 1015.3 0.5 100
2018-09-11 09:00:00 14.5 2 Nordeste 5 Sudeste 0 1015.2 0.4 100
2018-09-11 08:00:00 14.1 0 Calma 5 Noroeste 0 1015.2 0.4 99
2018-09-11 07:00:00 14.3 0 Calma 4 Noroeste 0 1014.8 -0.3 99
2018-09-11 06:00:00 14.4 3 Nordeste 5 Nordeste 0 1014.8 -0.6 97
2018-09-11 05:00:00 15 3 Sudeste 11 Sur 0 1014.8 -0.8 97
2018-09-11 04:00:00 14.9 4 Sudeste 7 Sudeste 0 1015.1 -1 98
2018-09-11 03:00:00 15 3 Este 5 Sudeste 0 1015.4 -0.7 97
2018-09-11 02:00:00 15.5 4 Este 5 Sudeste 0 1015.6 -0.5 96
2018-09-11 01:00:00 15.9 3 Nordeste 4 Nordeste 0 1016.1 0.3 95
2018-09-11 00:00:00 16.2 2 Sudeste 9 Oeste 0 1016.1 0.8 95
2018-09-10 23:00:00 16.7 6 Oeste 8 Oeste 0 1016.1 0.7 92
2018-09-10 22:00:00 17.4 4 Oeste 10 Sudoeste 0 1015.8 0.5 89
2018-09-10 21:00:00 18.4 8 Sudoeste 19 Sudoeste 0 1015.3 -0.3 85
2018-09-10 20:00:00 18.8 6 Oeste 20 Oeste 0 1015.4 -0.5 83
2018-09-10 19:00:00 21.3 6 Oeste 13 Oeste 0 1015.3 -1.1 73
2018-09-10 18:00:00 22.3 8 Oeste 15 Oeste 0 1015.6 -1.1 69
2018-09-10 17:00:00 22 8 Noroeste 19 Oeste 0 1015.9 -1.1 70
2018-09-10 16:00:00 22.6 13 Norte 19 Norte 0 1016.4 -0.9 67
2018-09-10 15:00:00 22.3 11 Norte 17 Norte 0 1016.7 -0.6 69
2018-09-10 14:00:00 21.6 6 Nordeste 12 Nordeste 0 1017 0.1 70
2018-09-10 13:00:00 21.1 7 Nordeste 12 Norte 0 1017.3 0.3 71
2018-09-10 12:00:00 19.9 7 Nordeste 11 Nordeste 0 1017.3 0.5 77
2018-09-10 11:00:00 17.9 4 Sudeste 8 Este 0 1016.9 0.3 84
2018-09-10 10:00:00 15.6 6 Sudeste 10 Sudeste 0 1017 0.6 94
2018-09-10 09:00:00 14.9 5 Sur 12 Sur 0 1016.8 0.6 98
2018-09-10 08:00:00 14.6 4 Sudeste 7 Sur 0 1016.6 0.5 99
2018-09-10 07:00:00 15 0 Calma 5 Sudeste 0 1016.4 0.2 98
2018-09-10 06:00:00 14.6 0 Calma 4 Nordeste 0 1016.2 0 96
2018-09-10 05:00:00 15.1 0 Calma 4 Sudeste 0 1016.1 -0.2 96
2018-09-10 04:00:00 15.4 0 Calma 4 Sudeste 0 1016.2 -0.1 95
2018-09-10 03:00:00 15.8 0 Calma 4 Nordeste 0 1016.2 -0.2 94
2018-09-10 02:00:00 16.2 0 Calma 5 Sudeste 0 1016.3 0.2 93
2018-09-10 01:00:00 16.4 2 Sudeste 10 Oeste 0 1016.3 0.7 93
2018-09-10 00:00:00 16.6 5 Oeste 11 Oeste 0 1016.4 1.3 93
2018-09-09 23:00:00 16.9 7 Oeste 13 Oeste 0 1016.1 1.5 91
2018-09-09 22:00:00 17.2 6 Oeste 13 Oeste 0 1015.6 1.1 90
2018-09-09 21:00:00 17.9 6 Noroeste 18 Noroeste 0 1015.1 0.9 87
2018-09-09 20:00:00 18.6 11 Noroeste 28 Norte 0 1014.6 0.2 85
2018-09-09 19:00:00 19 21 Norte 35 Noroeste 0 1014.5 0 84
2018-09-09 18:00:00 19.5 18 Norte 32 Norte 0 1014.2 -0.7 84
2018-09-09 17:00:00 20.4 15 Noroeste 30 Noroeste 0 1014.4 0 79
2018-09-09 16:00:00 20.5 12 Noroeste 26 Noroeste 0 1014.5 0.1 79
2018-09-09 15:00:00 20.2 14 Oeste 19 Noroeste 0 1014.9 0.7 81
2018-09-09 14:00:00 20.3 10 Oeste 18 Oeste 0 1014.4 0.3 75
2018-09-09 13:00:00 21.7 9 Noroeste 15 Noroeste 0 1014.4 0.8 68
2018-09-09 12:00:00 21.3 6 Este 10 Este 0 1014.2 1.2 68
2018-09-09 11:00:00 18.9 3 Norte 7 Norte 0 1014.1 1.6 77
2018-09-09 10:00:00 17.2 2 Norte 8 Sur 0 1013.6 1.7 83
2018-09-09 09:00:00 16 4 Sudeste 7 Sudeste 0 1013 1.6 89
2018-09-09 08:00:00 15.6 3 Norte 5 Oeste 0 1012.5 1.2 89
2018-09-09 07:00:00 15.9 4 Este 6 Este 0 1011.9 0.9 87
2018-09-09 06:00:00 16.2 4 Sur 8 Sur 0 1011.4 0.4 86
2018-09-09 05:00:00 16.7 3 Este 5 Este 0 1011.3 0.3 85
2018-09-09 04:00:00 17.3 4 Oeste 10 Oeste 0 1011 0 80
2018-09-09 03:00:00 17.1 5 Oeste 9 Oeste 0 1011 0.4 83
2018-09-09 02:00:00 17.1 5 Oeste 8 Oeste 0 1011 0.9 86
2018-09-09 01:00:00 16.9 5 Norte 12 Norte 0 1011 1 88
2018-09-09 00:00:00 18.5 5 Norte 16 Sudeste 0 1010.6 1.4 75
2018-09-08 23:00:00 20.8 4 Oeste 9 Sudeste 0 1010.1 1.7 62
2018-09-08 22:00:00 21 3 Sudoeste 11 Sur 0 1010 2.1 61
2018-09-08 21:00:00 21.4 6 Sudoeste 14 Sudoeste 0 1009.2 1.6 59
2018-09-08 20:00:00 21.9 9 Oeste 20 Oeste 0 1008.4 0.8 60
2018-09-08 19:00:00 23.5 10 Oeste 19 Noroeste 0 1007.9 0.2 56
2018-09-08 18:00:00 25 9 Oeste 18 Noroeste 0 1007.6 -0.2 49
2018-09-08 17:00:00 25.8 12 Oeste 21 Oeste 0 1007.6 0.1 47
2018-09-08 16:00:00 26.2 10 Norte 15 Noroeste 0 1007.7 -0.1 48
2018-09-08 15:00:00 25.5 8 Norte 16 Norte 0 1007.8 0.1 53
2018-09-08 14:00:00 25.6 5 Nordeste 9 Nordeste 0 1007.5 0 53
2018-09-08 13:00:00 24.4 6 Nordeste 11 Este 0 1007.8 0.4 59
2018-09-08 12:00:00 22.9 7 Nordeste 11 Nordeste 0 1007.7 0.7 63
2018-09-08 11:00:00 21.3 6 Este 13 Este 0 1007.5 0.9 67
2018-09-08 10:00:00 18.7 5 Este 10 Este 0 1007.4 0.8 75
2018-09-08 09:00:00 16.3 4 Este 15 Sudeste 0 1007 0 85
2018-09-08 08:00:00 16.4 9 Sudeste 18 Sudeste 0 1006.6 -0.7 84
2018-09-08 07:00:00 16.6 6 Sudeste 10 Este 0 1006.6 -0.8 82
2018-09-08 06:00:00 16.6 7 Sudeste 12 Sudeste 0 1007 -0.8 83
2018-09-08 05:00:00 16.4 3 Nordeste 5 Nordeste 0 1007.3 -1 83
2018-09-08 04:00:00 16.9 5 Sudeste 9 Este 0 1007.4 -1.2 81
2018-09-08 03:00:00 17 5 Este 8 Sudeste 0 1007.8 -1.1 82
2018-09-08 02:00:00 17.4 4 Este 8 Este 0 1008.3 -0.6 80
2018-09-08 01:00:00 17.7 5 Nordeste 14 Este 0 1008.6 -0.1 78
2018-09-08 00:00:00 17.9 5 Este 10 Nordeste 0 1008.9 0.9 77
2018-09-07 23:00:00 18.3 8 Nordeste 17 Nordeste 0 1008.9 1.3 75
2018-09-07 22:00:00 19 11 Este 27 Este 0 1008.7 1.3 72
2018-09-07 21:00:00 19.5 19 Nordeste 31 Nordeste 0 1008 0.5 70
2018-09-07 20:00:00 20.6 21 Nordeste 39 Nordeste 0 1007.6 -0.2 67
2018-09-07 19:00:00 22.1 19 Nordeste 36 Nordeste 0 1007.4 -0.9 62
2018-09-07 18:00:00 23 14 Nordeste 25 Norte 0 1007.5 -1.2 60
2018-09-07 17:00:00 22.4 10 Norte 23 Nordeste 0 1007.8 -1.4 61
2018-09-07 16:00:00 24.4 15 Nordeste 29 Nordeste 0 1008.3 -1.3 55
2018-09-07 15:00:00 24.2 17 Nordeste 33 Nordeste 0 1008.7 -1.4 55
2018-09-07 14:00:00 24 14 Nordeste 24 Nordeste 0 1009.2 -0.8 56
2018-09-07 13:00:00 22.9 14 Nordeste 20 Nordeste 0 1009.6 -0.5 59
2018-09-07 12:00:00 21.5 12 Nordeste 18 Nordeste 0 1010.1 0.1 63
2018-09-07 11:00:00 20.3 11 Este 19 Nordeste 0 1010 0.2 67
2018-09-07 10:00:00 18.4 9 Nordeste 17 Este 0 1010.1 0.4 74
2018-09-07 09:00:00 16.6 10 Nordeste 17 Nordeste 0 1010 0.2 82
2018-09-07 08:00:00 16.3 9 Nordeste 22 Nordeste 0 1009.8 -0.2 82
2018-09-07 07:00:00 16.6 13 Nordeste 23 Nordeste 0 1009.7 -0.4 81
2018-09-07 06:00:00 16.6 18 Nordeste 26 Nordeste 0 1009.8 -0.5 81
2018-09-07 05:00:00 16.7 16 Nordeste 29 Nordeste 0 1010 -0.8 81
2018-09-07 04:00:00 16.9 16 Nordeste 29 Nordeste 0 1010.1 -1.1 81
2018-09-07 03:00:00 17 20 Nordeste 31 Nordeste 0 1010.3 -1.4 82
2018-09-07 02:00:00 16.6 14 Nordeste 29 Nordeste 0 1010.8 -1.2 83
2018-09-07 01:00:00 17.5 17 Nordeste 28 Nordeste 0 1011.2 -0.8 79
2018-09-07 00:00:00 17.8 17 Nordeste 33 Nordeste 0 1011.7 0 79
2018-09-06 23:00:00 17.7 16 Nordeste 28 Nordeste 0 1012 0.4 79
2018-09-06 22:00:00 17.5 14 Norte 24 Nordeste 0 1012 0.3 81
2018-09-06 21:00:00 17.9 17 Nordeste 32 Nordeste 0 1011.7 0 80
2018-09-06 20:00:00 17.7 15 Nordeste 27 Nordeste 0 1011.6 -0.1 81
2018-09-06 19:00:00 18.1 13 Nordeste 30 Norte 0 1011.7 -0.5 79
2018-09-06 18:00:00 19 19 Nordeste 36 Nordeste 0 1011.7 -0.6 76
2018-09-06 17:00:00 21.1 20 Nordeste 45 Nordeste 0 1011.7 -0.9 67
2018-09-06 16:00:00 21.4 23 Nordeste 38 Nordeste 0 1012.2 -0.6 65
2018-09-06 15:00:00 21.3 24 Nordeste 37 Nordeste 0 1012.3 -0.5 66
2018-09-06 14:00:00 20.5 24 Nordeste 33 Nordeste 0 1012.6 0.2 68
2018-09-06 13:00:00 20.1 23 Nordeste 35 Nordeste 0 1012.8 0.7 71
2018-09-06 12:00:00 19.4 19 Nordeste 35 Este 0 1012.8 1 76
2018-09-06 11:00:00 18 19 Nordeste 30 Nordeste 0 1012.4 1 83
2018-09-06 10:00:00 16.8 16 Nordeste 25 Nordeste 0 1012.1 1.2 92
2018-09-06 09:00:00 16.1 9 Norte 26 Nordeste 0.4 1011.8 0.7 96
2018-09-06 08:00:00 16.8 15 Nordeste 34 Norte 0.2 1011.4 0.3 95
2018-09-06 07:00:00 16.5 14 Nordeste 29 Norte 0 1010.9 -0.4 94
2018-09-06 06:00:00 16.6 13 Nordeste 21 Norte 0 1011.1 -0.4 93
2018-09-06 05:00:00 16.3 11 Norte 21 Norte 0 1011.1 -0.6 94
2018-09-06 04:00:00 16.4 13 Norte 19 Norte 0 1011.3 -0.5 93
2018-09-06 03:00:00 16.1 10 Norte 18 Norte 0 1011.5 -0.5 93
2018-09-06 02:00:00 16.3 7 Norte 22 Nordeste 0 1011.7 0 94
2018-09-06 01:00:00 16 10 Norte 22 Norte 0 1011.8 0.5 95
2018-09-06 00:00:00 16.6 14 Norte 24 Norte 0 1012 1.4 94
2018-09-05 23:00:00 16.1 12 Norte 33 Norte 0 1011.7 1.2 94
2018-09-05 22:00:00 16.2 15 Norte 30 Norte 0 1011.3 0.7 91
2018-09-05 21:00:00 16.7 16 Norte 30 Norte 0 1010.6 0.2 90
2018-09-05 20:00:00 17.4 15 Norte 31 Norte 0 1010.5 0.1 87
2018-09-05 19:00:00 17.4 17 Norte 31 Norte 0 1010.6 0.2 87
2018-09-05 18:00:00 18.8 13 Norte 24 Norte 0 1010.4 0 81
2018-09-05 17:00:00 20.3 13 Nordeste 24 Norte 0 1010.4 -0.1 69
2018-09-05 16:00:00 18.7 15 Norte 26 Norte 0 1010.4 0 79
2018-09-05 15:00:00 20 8 Norte 25 Nordeste 0 1010.4 0.4 70
2018-09-05 14:00:00 19 20 Nordeste 32 Nordeste 0 1010.5 0.9 73
2018-09-05 13:00:00 18.2 10 Norte 26 Nordeste 0 1010.4 0.9 78
2018-09-05 12:00:00 17.4 15 Norte 29 Norte 0 1010 0.9 81
2018-09-05 11:00:00 17.6 15 Norte 30 Norte 0 1009.6 0.8 85
2018-09-05 10:00:00 18.1 15 Nordeste 33 Nordeste 0 1009.5 1.7 83
2018-09-05 09:00:00 16.9 13 Norte 31 Norte 0 1009.1 1.7 88
2018-09-05 08:00:00 16.9 12 Nordeste 24 Nordeste 0 1008.8 0.9 88
2018-09-05 07:00:00 15.8 14 Nordeste 27 Norte 0 1007.8 -0.4 92
2018-09-05 06:00:00 16.1 11 Norte 27 Norte 0 1007.4 -1 96
2018-09-05 05:00:00 16.4 19 Norte 32 Norte 0 1007.9 -0.5 95
2018-09-05 04:00:00 16.5 16 Norte 31 Norte 0 1008.2 -0.1 96
2018-09-05 03:00:00 16.4 19 Norte 41 Norte 0 1008.4 -0.1 96
2018-09-05 02:00:00 16.4 24 Norte 35 Norte 0 1008.4 0.2 96
2018-09-05 01:00:00 16.7 21 Norte 36 Norte 0 1008.3 0.3 95
2018-09-05 00:00:00 16.8 16 Norte 33 Norte 0 1008.5 1.2 95
2018-09-04 23:00:00 16.7 18 Norte 42 Norte 0 1008.2 1.1 95
2018-09-04 22:00:00 16.7 15 Norte 35 Norte 0 1008 1.1 96
2018-09-04 21:00:00 17 17 Norte 32 Norte 0 1007.3 0 96
2018-09-04 20:00:00 17.7 20 Nordeste 32 Nordeste 0 1007.1 -0.5 92
2018-09-04 19:00:00 17.9 13 Norte 29 Norte 0 1006.9 -0.7 92
2018-09-04 18:00:00 17.9 14 Norte 26 Norte 0 1007.3 -0.5 90
2018-09-04 17:00:00 18.5 9 Norte 18 Norte 0 1007.6 -0.4 84
2018-09-04 16:00:00 18.4 8 Norte 17 Norte 0 1007.6 -0.5 80
2018-09-04 15:00:00 18.3 9 Norte 17 Norte 0 1007.8 -0.1 84
2018-09-04 14:00:00 18.8 8 Nordeste 21 Nordeste 0.4 1008 0.3 83
2018-09-04 13:00:00 19.7 15 Nordeste 23 Nordeste 0 1008.1 0.6 81
2018-09-04 12:00:00 19.7 14 Nordeste 22 Nordeste 0 1007.9 0.5 76
2018-09-04 11:00:00 19 11 Norte 21 Nordeste 0 1007.7 0.5 78
2018-09-04 10:00:00 18.3 11 Nordeste 21 Nordeste 0 1007.5 0.7 80
2018-09-04 09:00:00 18.2 14 Nordeste 28 Nordeste 0 1007.4 0.4 81
2018-09-04 08:00:00 17.7 13 Nordeste 24 Nordeste 0 1007.2 -0.1 84
2018-09-04 07:00:00 16.9 15 Nordeste 23 Nordeste 0 1006.8 -0.6 88
2018-09-04 06:00:00 16.7 11 Norte 20 Nordeste 0 1007 -0.7 89
2018-09-04 05:00:00 16.9 9 Norte 21 Norte 0 1007.3 -0.5 88
2018-09-04 04:00:00 18.6 13 Nordeste 27 Nordeste 0 1007.4 -0.6 79
2018-09-04 03:00:00 19.2 15 Nordeste 30 Nordeste 0 1007.7 -0.4 74
2018-09-04 02:00:00 19.5 16 Nordeste 31 Nordeste 0 1007.8 -0.3 71
2018-09-04 01:00:00 19.5 19 Nordeste 33 Nordeste 0 1008 0.4 71
2018-09-04 00:00:00 19.8 22 Nordeste 32 Nordeste 0 1008.1 1.2 73
2018-09-03 23:00:00 20 21 Nordeste 32 Nordeste 0 1008.1 1.4 71
2018-09-03 22:00:00 20.5 21 Nordeste 31 Nordeste 0 1007.6 1.5 70
2018-09-03 21:00:00 21.2 19 Nordeste 34 Nordeste 0 1006.9 1.2 67
2018-09-03 20:00:00 22 19 Nordeste 44 Nordeste 0 1006.7 1.2 64
2018-09-03 19:00:00 23.1 28 Nordeste 46 Nordeste 0 1006.1 0.9 60
2018-09-03 18:00:00 24.1 27 Nordeste 42 Nordeste 0 1005.7 0.7 57
2018-09-03 17:00:00 22 15 Norte 36 Norte 0 1005.5 0.2 67
2018-09-03 16:00:00 26.4 19 Nordeste 36 Nordeste 0 1005.2 -0.3 49
2018-09-03 15:00:00 25.6 17 Nordeste 35 Nordeste 0 1005 -1 54
2018-09-03 14:00:00 25.8 19 Nordeste 33 Nordeste 0 1005.3 -1 53
2018-09-03 13:00:00 24.6 25 Nordeste 37 Nordeste 0 1005.5 -0.7 59
2018-09-03 12:00:00 21.8 22 Nordeste 38 Nordeste 0 1006 0.6 68
2018-09-03 11:00:00 20.7 9 Nordeste 16 Este 0 1006.3 1.6 70
2018-09-03 10:00:00 21 8 Este 14 Nordeste 0 1006.2 1.6 70
2018-09-03 09:00:00 19.6 8 Nordeste 15 Este 0 1005.4 0.7 75
2018-09-03 08:00:00 18.9 11 Nordeste 17 Nordeste 0 1004.7 -0.3 76
2018-09-03 07:00:00 19.2 8 Este 14 Este 0 1004.6 0.2 77
2018-09-03 06:00:00 19.6 7 Este 17 Nordeste 0 1004.7 0.1 76
2018-09-03 05:00:00 20 5 Nordeste 15 Nordeste 0 1005 -0.4 76
2018-09-03 04:00:00 20 3 Este 20 Este 0.6 1004.4 -1.4 78
2018-09-03 03:00:00 20.3 15 Este 25 Este 0 1004.6 -1.3 74
2018-09-03 02:00:00 20.4 10 Este 21 Este 0 1005.4 -0.4 75
2018-09-03 01:00:00 20.3 10 Este 18 Este 0 1005.8 0.5 75
2018-09-03 00:00:00 20.5 4 Norte 15 Oeste 0 1005.9 1.4 75
2018-09-02 23:00:00 21.3 6 Oeste 11 Oeste 0 1005.8 1 71
2018-09-02 22:00:00 22.4 6 Oeste 11 Oeste 0 1005.3 0.8 66
2018-09-02 21:00:00 23.1 6 Oeste 14 Oeste 0 1004.5 -0.1 63
2018-09-02 20:00:00 23.5 8 Oeste 22 Oeste 0 1004.8 -0.1 65
2018-09-02 19:00:00 25.6 11 Oeste 21 Oeste 0 1004.5 -0.4 60
2018-09-02 18:00:00 26.8 13 Oeste 24 Oeste 0 1004.6 -0.7 58
2018-09-02 17:00:00 28.4 11 Oeste 17 Noroeste 0 1004.9 -0.7 53
2018-09-02 16:00:00 31.1 6 Norte 11 Norte 0 1004.9 -1.1 48
2018-09-02 15:00:00 30.4 6 Norte 11 Norte 0 1005.3 -0.9 50
2018-09-02 14:00:00 29.3 3 Nordeste 10 Este 0 1005.6 -0.5 53
2018-09-02 13:00:00 28.4 5 Nordeste 8 Nordeste 0 1006 0 56
2018-09-02 12:00:00 27.2 3 Nordeste 6 Este 0 1006.2 0.5 58
2018-09-02 11:00:00 25.2 4 Este 6 Este 0 1006.1 0.7 63
2018-09-02 10:00:00 23 2 Nordeste 5 Sudeste 0 1006 0.7 72
2018-09-02 09:00:00 20.3 4 Sur 8 Sudeste 0 1005.7 0.3 81
2018-09-02 08:00:00 20 3 Sudeste 12 Sur 0 1005.4 -0.4 82
2018-09-02 07:00:00 19.9 9 Sudeste 13 Sudeste 0 1005.3 -0.9 82
2018-09-02 06:00:00 19.7 3 Este 12 Sudeste 0 1005.4 -1.2 84
2018-09-02 05:00:00 19.6 4 Este 7 Sudeste 0 1005.8 -1 86
2018-09-02 04:00:00 19.7 4 Sudeste 14 Nordeste 0 1006.2 -1.1 83
2018-09-02 03:00:00 20.1 6 Este 15 Sudeste 0 1006.6 -1 81
2018-09-02 02:00:00 20.4 6 Este 15 Este 0 1006.8 -1 79
2018-09-02 01:00:00 20.9 6 Este 12 Este 0 1007.3 -0.3 77
2018-09-02 00:00:00 21.6 5 Este 10 Sudeste 0 1007.6 0.3 76
2018-09-01 23:00:00 22.5 7 Sudeste 13 Este 0 1007.8 0.5 73
2018-09-01 22:00:00 23.7 7 Este 19 Este 0 1007.6 0.1 69
2018-09-01 21:00:00 24.7 9 Este 16 Este 0 1007.3 -0.2 66
2018-09-01 20:00:00 25.4 9 Nordeste 19 Este 0 1007.3 -0.5 64
2018-09-01 19:00:00 26.6 8 Nordeste 16 Nordeste 0 1007.5 -1 61
2018-09-01 18:00:00 27.5 6 Norte 10 Noroeste 0 1007.5 -1.4 58
2018-09-01 17:00:00 27.5 5 Norte 12 Norte 0 1007.8 -1.6 58
2018-09-01 16:00:00 28.7 6 Norte 10 Norte 0 1008.5 -1.5 54
2018-09-01 15:00:00 27.9 4 Nordeste 9 Nordeste 0 1008.9 -1.5 55
2018-09-01 14:00:00 27.7 6 Nordeste 9 Nordeste 0 1009.4 -1.2 56
2018-09-01 13:00:00 26 7 Nordeste 12 Este 0 1010 -0.6 60
2018-09-01 12:00:00 24.9 6 Nordeste 11 Este 0 1010.4 -0.1 61
2018-09-01 11:00:00 22.9 7 Este 13 Este 0 1010.6 0.1 67
2018-09-01 10:00:00 20.9 6 Sudeste 14 Sudeste 0 1010.6 0.2 76
2018-09-01 09:00:00 18.6 4 Este 11 Nordeste 0 1010.5 -0.1 85
2018-09-01 08:00:00 17.8 6 Sudeste 9 Este 0 1010.5 -0.3 88
2018-09-01 07:00:00 18 4 Sudeste 8 Este 0 1010.4 -0.9 87
2018-09-01 06:00:00 18 5 Nordeste 12 Norte 0 1010.6 -1 88
2018-09-01 05:00:00 18.2 2 Norte 13 Este 0 1010.8 -1.2 86
2018-09-01 04:00:00 18.7 8 Nordeste 19 Nordeste 0 1011.3 -0.9 84
2018-09-01 03:00:00 18 6 Nordeste 16 Nordeste 0 1011.6 -0.8 88
2018-09-01 02:00:00 18.3 8 Norte 19 Norte 0 1012 -0.6 88
2018-09-01 01:00:00 19.4 12 Nordeste 27 Nordeste 0 1012.2 0 83
2018-09-01 00:00:00 19.1 12 Nordeste 22 Nordeste 0 1012.4 0.6 85
2018-08-31 23:00:00 18.8 12 Norte 20 Nordeste 0 1012.6 0.8 85
2018-08-31 22:00:00 19.3 12 Nordeste 26 Norte 0 1012.2 0.5 84
2018-08-31 21:00:00 19.3 13 Norte 30 Norte 0 1011.8 0 85
2018-08-31 20:00:00 18.9 16 Norte 30 Norte 0 1011.8 -0.2 87
2018-08-31 19:00:00 19.6 17 Norte 36 Norte 0 1011.7 -0.6 84
2018-08-31 18:00:00 20.2 22 Norte 39 Norte 0 1011.8 -0.7 83
2018-08-31 17:00:00 20.9 23 Norte 37 Norte 0 1012 -0.9 81
2018-08-31 16:00:00 21.1 25 Norte 42 Norte 0 1012.3 -1 80
2018-08-31 15:00:00 21.1 10 Norte 27 Norte 0 1012.5 -1.1 79
2018-08-31 14:00:00 21.6 10 Noroeste 32 Norte 0 1012.9 -0.8 76
2018-08-31 13:00:00 22 8 Norte 16 Norte 0 1013.3 -0.4 76
2018-08-31 12:00:00 21.3 8 Norte 12 Norte 0 1013.6 -0.2 76
2018-08-31 11:00:00 21.2 5 Nordeste 10 Norte 0 1013.7 0.1 75
2018-08-31 10:00:00 19.7 2 Sudeste 5 Sudeste 0 1013.7 0.4 79
2018-08-31 09:00:00 16.8 3 Nordeste 5 Nordeste 0 1013.8 0.5 91
2018-08-31 08:00:00 16.3 2 Nordeste 7 Sur 0 1013.6 0.1 91
2018-08-31 07:00:00 16.4 6 Sur 8 Sur 0 1013.3 -0.2 92
2018-08-31 06:00:00 16.3 0 Calma 5 Nordeste 0 1013.3 -0.5 91
2018-08-31 05:00:00 16.5 2 Nordeste 5 Sudeste 0 1013.5 -0.5 91
2018-08-31 04:00:00 16.6 0 Calma 11 Norte 0 1013.5 -0.9 91
2018-08-31 03:00:00 17.1 4 Noroeste 8 Noroeste 0 1013.8 -0.9 89
2018-08-31 02:00:00 17.3 3 Norte 8 Nordeste 0 1014 -0.8 87
2018-08-31 01:00:00 17.6 5 Norte 9 Nordeste 0 1014.4 -0.1 86
2018-08-31 00:00:00 17.8 6 Norte 17 Nordeste 0 1014.7 0.6 84
2018-08-30 23:00:00 18.4 11 Nordeste 23 Nordeste 0 1014.8 0.9 81
2018-08-30 22:00:00 18.4 13 Nordeste 23 Norte 0 1014.5 0.6 80
2018-08-30 21:00:00 18.4 13 Nordeste 29 Norte 0 1014.1 0 82
2018-08-30 20:00:00 18.8 14 Norte 28 Norte 0 1013.9 -0.4 80
2018-08-30 19:00:00 19 19 Norte 36 Noroeste 0 1013.9 -0.7 79
2018-08-30 18:00:00 19.6 21 Norte 31 Nordeste 0 1014.1 -1 78
2018-08-30 17:00:00 20.5 15 Norte 29 Norte 0 1014.3 -0.9 75
2018-08-30 16:00:00 21 16 Norte 33 Norte 0 1014.6 -0.9 71
2018-08-30 15:00:00 21 18 Norte 29 Norte 0 1015.1 -0.6 71
2018-08-30 14:00:00 20.6 13 Norte 26 Norte 0 1015.2 -0.3 71
2018-08-30 13:00:00 20.6 13 Norte 20 Norte 0 1015.5 -0.1 69
2018-08-30 12:00:00 20.4 8 Norte 13 Norte 0 1015.7 0.3 68
2018-08-30 11:00:00 19.6 5 Este 8 Este 0 1015.5 0.6 67
2018-08-30 10:00:00 17.5 3 Este 8 Sudeste 0 1015.6 0.7 77
2018-08-30 09:00:00 15.7 5 Sudeste 7 Este 0 1015.4 0.4 88
2018-08-30 08:00:00 15.5 2 Este 5 Sudeste 0 1014.9 -0.4 89
2018-08-30 07:00:00 16.2 2 Nordeste 3 Nordeste 0 1014.9 -0.7 87
2018-08-30 06:00:00 17 2 Sudeste 6 Este 0 1015 -1.2 81
2018-08-30 05:00:00 17.2 3 Sudeste 8 Sur 0 1015.3 -1.4 80
2018-08-30 04:00:00 16.9 3 Sudeste 7 Sudeste 0 1015.6 -1.3 83
2018-08-30 03:00:00 16.8 4 Sudeste 9 Este 0 1016.2 -0.9 84
2018-08-30 02:00:00 16.6 4 Nordeste 19 Norte 0 1016.7 -0.4 88
2018-08-30 01:00:00 16.6 9 Norte 22 Norte 0 1016.9 0 87
2018-08-30 00:00:00 17 11 Norte 22 Norte 0 1017.1 0.8 86
2018-08-29 23:00:00 17.4 9 Norte 19 Norte 0 1017.1 1.1 84
2018-08-29 22:00:00 17.7 9 Norte 18 Norte 0 1016.9 1.1 82
2018-08-29 21:00:00 17.9 8 Noroeste 23 Noroeste 0 1016.3 0.3 75
2018-08-29 20:00:00 18.2 13 Noroeste 25 Norte 0 1016 0 77
2018-08-29 19:00:00 18.9 14 Norte 28 Norte 0 1015.8 -0.1 73
2018-08-29 18:00:00 19.5 10 Noroeste 26 Noroeste 0 1016 0.2 73
2018-08-29 17:00:00 20.2 14 Noroeste 25 Noroeste 0 1016 0.2 73
2018-08-29 16:00:00 21 10 Oeste 19 Oeste 0 1015.9 0.2 74
2018-08-29 15:00:00 20.7 10 Noroeste 16 Oeste 0 1015.8 0.5 75
2018-08-29 14:00:00 20.5 9 Oeste 23 Oeste 0 1015.8 1.1 77
2018-08-29 13:00:00 19.3 16 Oeste 24 Oeste 0 1015.7 1.3 81
2018-08-29 12:00:00 18.9 9 Oeste 14 Oeste 0 1015.3 1.1 83
2018-08-29 11:00:00 19 3 Sudeste 10 Sur 0 1014.7 0.9 80
2018-08-29 10:00:00 17.7 5 Sudeste 13 Sudeste 0 1014.4 0.9 82
2018-08-29 09:00:00 17.2 3 Sur 9 Sudeste 0 1014.2 0.8 82
2018-08-29 08:00:00 17.1 3 Sudeste 10 Sur 0 1013.8 0.7 83
2018-08-29 07:00:00 16.7 8 Sur 18 Oeste 0 1013.5 0.4 82
2018-08-29 06:00:00 16.3 11 Sudoeste 17 Oeste 0 1013.4 0.5 84
2018-08-29 05:00:00 16.2 6 Sudoeste 17 Oeste 0 1013.1 0.5 86
2018-08-29 04:00:00 16.7 13 Sudoeste 21 Oeste 0 1013.1 1 87
2018-08-29 03:00:00 17 14 Oeste 25 Sudoeste 0 1012.9 1 89
2018-08-29 02:00:00 17.3 13 Oeste 26 Oeste 0 1012.6 1 88
2018-08-29 01:00:00 17.2 16 Oeste 31 Oeste 0.2 1012.1 1.3 92
2018-08-29 00:00:00 17.4 16 Oeste 31 Sudoeste 0.2 1011.9 2.3 94
2018-08-28 23:00:00 17.3 18 Oeste 32 Oeste 0.6 1011.6 2.7 96
2018-08-28 22:00:00 17.3 18 Oeste 38 Oeste 0.6 1010.8 2.6 97
2018-08-28 21:00:00 17.6 22 Oeste 40 Oeste 1.8 1009.6 1.7 97
2018-08-28 20:00:00 18.3 19 Oeste 34 Oeste 0 1008.9 1.4 95
2018-08-28 19:00:00 20 18 Sudoeste 32 Sudoeste 0 1008.2 0.9 89
2018-08-28 18:00:00 19.4 7 Nordeste 15 Norte 0 1007.9 1.1 85
2018-08-28 17:00:00 22.1 8 Norte 19 Oeste 0 1007.5 1.5 73
2018-08-28 16:00:00 21.8 13 Oeste 32 Oeste 0 1007.3 1.4 73
2018-08-28 15:00:00 24.1 19 Oeste 38 Oeste 0 1006.8 1.5 64
2018-08-28 14:00:00 27.2 6 Noroeste 15 Norte 0 1006 1.1 51
2018-08-28 13:00:00 26.5 5 Nordeste 15 Este 0 1005.9 1.1 55
2018-08-28 12:00:00 25.3 8 Este 14 Este 0 1005.3 0.6 56
2018-08-28 11:00:00 24.1 5 Sudeste 19 Sudoeste 0 1004.9 0.7 58
2018-08-28 10:00:00 21.6 6 Sudoeste 16 Sudoeste 0 1004.8 1.8 65
2018-08-28 09:00:00 21.1 6 Oeste 23 Sur 0 1004.7 1.8 68
2018-08-28 08:00:00 20.3 12 Sur 29 Sudoeste 0 1004.2 0.6 72
2018-08-28 07:00:00 21.8 14 Sudeste 31 Sur 0 1003 -2.1 64
2018-08-28 06:00:00 21.1 17 Este 34 Sudeste 0.8 1002.9 -2.9 72
2018-08-28 05:00:00 19.5 9 Este 21 Sudoeste 0 1003.6 -2.5 88
2018-08-28 04:00:00 18.9 10 Este 17 Este 0 1005.1 -0.4 88
2018-08-28 03:00:00 19.8 6 Sudeste 12 Sudeste 0 1005.8 -0.2 84
2018-08-28 02:00:00 19.9 6 Sudeste 10 Sudeste 0 1006.1 0.5 81
2018-08-28 01:00:00 19.6 0 Calma 8 Nordeste 0 1005.5 -0.2 81
2018-08-28 00:00:00 19.9 7 Nordeste 9 Norte 0 1006 0.2 80
2018-08-27 23:00:00 20.3 3 Noroeste 8 Nordeste 0 1005.6 0.2 80
2018-08-27 22:00:00 20.8 8 Norte 16 Norte 0 1005.7 -0.3 79
2018-08-27 21:00:00 21.8 10 Norte 25 Nordeste 0 1005.8 -1.1 77
2018-08-27 20:00:00 19.3 7 Noroeste 21 Noroeste 0 1005.4 -1.8 87
2018-08-27 19:00:00 20 6 Noroeste 21 Norte 0 1006 -1.5 84
2018-08-27 18:00:00 19.7 17 Noroeste 36 Norte 0 1006.9 -1.5 87
2018-08-27 17:00:00 21.1 17 Norte 36 Norte 0 1007.2 -1.7 82
2018-08-27 16:00:00 21 18 Norte 37 Norte 0 1007.5 -1.6 83
2018-08-27 15:00:00 20.8 11 Noroeste 25 Norte 0 1008.4 -0.7 83
2018-08-27 14:00:00 19.8 11 Noroeste 24 Norte 0 1008.9 -0.2 89
2018-08-27 13:00:00 19.6 16 Norte 25 Noroeste 0 1009.1 0.2 92
2018-08-27 12:00:00 19.2 13 Norte 22 Norte 0 1009.1 0.2 93
2018-08-27 11:00:00 18.5 5 Norte 14 Noroeste 0 1009.1 0.8 97
2018-08-27 10:00:00 18 5 Norte 12 Norte 0 1008.9 0.7 96
2018-08-27 09:00:00 18.8 8 Norte 13 Norte 0 1008.9 0.6 91
2018-08-27 08:00:00 19.4 5 Nordeste 11 Nordeste 0 1008.3 -0.2 88
2018-08-27 07:00:00 19.5 5 Este 9 Sudeste 0 1008.2 -0.6 89
2018-08-27 06:00:00 19.1 3 Sudeste 5 Este 0 1008.3 -0.7 90
2018-08-27 05:00:00 19.2 3 Sudeste 6 Nordeste 0 1008.5 -0.7 90
2018-08-27 04:00:00 19.2 2 Este 7 Sudeste 0 1008.8 -0.8 88
2018-08-27 03:00:00 19.1 6 Sudeste 10 Sur 0 1009 -0.7 88
2018-08-27 02:00:00 18.8 4 Sudeste 8 Este 0 1009.2 -0.5 89
2018-08-27 01:00:00 18.8 3 Este 5 Nordeste 0 1009.6 0 88
2018-08-27 00:00:00 19.1 3 Nordeste 6 Nordeste 0 1009.7 0.3 84
2018-08-26 23:00:00 19.2 3 Norte 9 Oeste 0 1009.7 0.6 84
2018-08-26 22:00:00 19.2 6 Oeste 11 Oeste 0 1009.6 0.6 83
2018-08-26 21:00:00 19.7 8 Oeste 15 Oeste 0 1009.4 0.3 76
2018-08-26 20:00:00 20.7 10 Oeste 16 Oeste 0 1009.1 -0.5 65
2018-08-26 19:00:00 21.5 9 Oeste 17 Oeste 0 1009 -0.9 58
2018-08-26 18:00:00 22 9 Oeste 19 Oeste 0 1009.1 -0.9 48
2018-08-26 17:00:00 22.2 12 Oeste 21 Noroeste 0 1009.6 -0.4 52
2018-08-26 16:00:00 21.8 13 Oeste 18 Oeste 0 1009.9 0.3 64
2018-08-26 15:00:00 21 10 Noroeste 21 Noroeste 0 1010 0 64
2018-08-26 14:00:00 20.7 9 Noroeste 23 Noroeste 0 1010 -0.1 66
2018-08-26 13:00:00 22.2 7 Norte 12 Norte 0 1009.6 -0.6 62
2018-08-26 12:00:00 21.5 8 Nordeste 12 Nordeste 0 1010 -0.1 62
2018-08-26 11:00:00 19.9 6 Este 11 Sudeste 0 1010.1 0.1 70
2018-08-26 10:00:00 18 4 Este 7 Este 0 1010.2 0.3 79
2018-08-26 09:00:00 15.7 3 Sudeste 6 Sudeste 0 1010.1 0.1 89
2018-08-26 08:00:00 14.9 2 Norte 3 Este 0 1010 -0.1 91
2018-08-26 07:00:00 15.2 0 Calma 6 Oeste 0 1009.9 -0.4 92
2018-08-26 06:00:00 15.4 4 Oeste 8 Oeste 0 1010 -0.9 90
2018-08-26 05:00:00 15.9 0 Calma 4 Sudeste 0 1010.1 -1.6 88
2018-08-26 04:00:00 16.2 3 Nordeste 7 Nordeste 0 1010.3 -1.7 87
2018-08-26 03:00:00 16.5 5 Nordeste 7 Nordeste 0 1010.9 -1.4 86
2018-08-26 02:00:00 16.7 0 Calma 9 Norte 0 1011.7 -0.8 85
2018-08-26 01:00:00 17.1 4 Norte 9 Norte 0 1012 -0.2 83
2018-08-26 00:00:00 17.3 5 Norte 10 Norte 0 1012.3 0.3 82
2018-08-25 23:00:00 17.3 7 Norte 12 Nordeste 0 1012.5 0.5 83
2018-08-25 22:00:00 17.2 8 Norte 15 Norte 0 1012.2 0 85
2018-08-25 21:00:00 17.4 8 Norte 20 Norte 0 1012 -0.4 85
2018-08-25 20:00:00 18.3 11 Noroeste 25 Norte 0 1012 -0.9 79
2018-08-25 19:00:00 19.2 14 Norte 25 Norte 0 1012.2 -1.2 76
2018-08-25 18:00:00 20 13 Noroeste 27 Noroeste 0 1012.4 -1.3 71
2018-08-25 17:00:00 20.5 12 Noroeste 26 Noroeste 0 1012.9 -1.2 66
2018-08-25 16:00:00 20.7 13 Noroeste 23 Norte 0 1013.4 -1.1 63
2018-08-25 15:00:00 21.5 15 Norte 23 Norte 0 1013.7 -1 57
2018-08-25 14:00:00 20.5 9 Norte 21 Noroeste 0 1014.1 -0.5 63
2018-08-25 13:00:00 20.6 9 Nordeste 14 Nordeste 0 1014.5 0.1 62
2018-08-25 12:00:00 20.3 9 Nordeste 12 Nordeste 0 1014.7 0.4 62
2018-08-25 11:00:00 19.8 6 Nordeste 10 Este 0 1014.6 0.6 63
2018-08-25 10:00:00 18.5 4 Este 7 Este 0 1014.4 0.5 70
2018-08-25 09:00:00 15.8 2 Este 4 Este 0 1014.3 0.3 86
2018-08-25 08:00:00 14.7 2 Nordeste 4 Este 0 1014 -0.4 89
2018-08-25 07:00:00 15.1 2 Nordeste 7 Este 0 1013.9 -0.7 86
2018-08-25 06:00:00 15.3 0 Calma 5 Norte 0 1014 -0.8 86
2018-08-25 05:00:00 15.3 4 Norte 8 Norte 0 1014.4 -1 86
2018-08-25 04:00:00 15.6 7 Norte 10 Norte 0 1014.6 -1 86
2018-08-25 03:00:00 15.9 3 Nordeste 15 Nordeste 0 1014.8 -0.8 84
2018-08-25 02:00:00 16.4 9 Nordeste 16 Este 0 1015.4 -0.1 80
2018-08-25 01:00:00 17.2 9 Nordeste 19 Nordeste 0 1015.6 0.3 78
2018-08-25 00:00:00 17.2 13 Nordeste 22 Norte 0 1015.6 0.8 78